createdAt,value
2019-02-22T00:00:02.028Z,3.47
2019-02-22T00:02:35.323Z,3.10
2019-02-22T00:05:06.668Z,3.95
2019-02-22T00:07:38.245Z,3.02
2019-02-22T00:10:09.895Z,3.00
2019-02-22T00:12:41.576Z,2.98
2019-02-22T00:15:14.227Z,2.72
2019-02-22T00:17:45.879Z,4.53
2019-02-22T00:20:17.422Z,5.95
2019-02-22T00:22:49.186Z,7.33
2019-02-22T00:25:20.949Z,7.50
2019-02-22T00:27:52.709Z,8.18
2019-02-22T00:30:24.463Z,7.75
2019-02-22T00:32:56.221Z,8.83
2019-02-22T00:35:28.073Z,7.60
2019-02-22T00:37:59.633Z,5.28
2019-02-22T00:40:31.489Z,4.25
2019-02-22T00:45:35.213Z,3.17
2019-02-22T00:48:06.866Z,2.85
2019-02-22T00:50:38.416Z,2.50
2019-02-22T00:53:10.075Z,1.95
2019-02-22T00:55:41.629Z,2.77
2019-02-22T00:58:13.284Z,2.50
2019-02-22T01:00:44.948Z,2.72
2019-02-22T01:03:16.597Z,2.70
2019-02-22T01:05:48.454Z,2.70
2019-02-22T01:08:20.726Z,3.15
2019-02-22T01:10:52.484Z,2.70
2019-02-22T01:13:24.140Z,2.33
2019-02-22T01:15:55.798Z,2.60
2019-02-22T01:18:27.457Z,3.25
2019-02-22T01:20:59.220Z,2.55
2019-02-22T01:23:30.672Z,2.50
2019-02-22T01:26:02.530Z,2.65
2019-02-22T01:28:34.190Z,2.70
2019-02-22T01:31:06.350Z,3.10
2019-02-22T01:33:38.004Z,2.70
2019-02-22T01:36:09.356Z,2.25
2019-02-22T01:38:40.909Z,3.05
2019-02-22T01:41:12.727Z,2.60
2019-02-22T01:43:46.315Z,3.23
2019-02-22T01:46:20.172Z,3.15
2019-02-22T01:48:51.830Z,4.20
2019-02-22T01:51:23.494Z,2.45
2019-02-22T01:53:55.062Z,2.02
2019-02-22T01:56:26.696Z,2.25
2019-02-22T01:58:58.353Z,2.30
2019-02-22T02:01:30.013Z,2.00
2019-02-22T02:04:01.671Z,2.40
2019-02-22T02:06:33.321Z,2.10
2019-02-22T02:09:05.808Z,2.08
2019-02-22T02:11:38.988Z,2.10
2019-02-22T02:14:10.541Z,2.00
2019-02-22T02:16:42.193Z,1.65
2019-02-22T02:19:13.856Z,1.82
2019-02-22T02:21:45.528Z,1.82
2019-02-22T02:24:17.167Z,1.87
2019-02-22T02:26:49.029Z,1.87
2019-02-22T02:29:20.579Z,1.90
2019-02-22T02:31:52.353Z,2.17
2019-02-22T02:34:23.686Z,1.80
2019-02-22T02:37:08.459Z,1.52
2019-02-22T02:39:40.120Z,2.17
2019-02-22T02:42:11.760Z,1.75
2019-02-22T02:44:43.311Z,1.77
2019-02-22T02:47:15.074Z,1.98
2019-02-22T02:49:46.633Z,1.90
2019-02-22T02:52:18.286Z,1.60
2019-02-22T02:54:49.940Z,1.70
2019-02-22T02:57:21.485Z,2.15
2019-02-22T02:59:53.146Z,2.22
2019-02-22T03:02:25.624Z,2.47
2019-02-22T03:04:56.985Z,1.75
2019-02-22T03:07:42.862Z,2.08
2019-02-22T03:10:15.142Z,2.15
2019-02-22T03:12:46.899Z,2.10
2019-02-22T03:15:19.759Z,1.85
2019-02-22T03:17:51.431Z,1.70
2019-02-22T03:20:23.090Z,2.12
2019-02-22T03:22:54.639Z,1.82
2019-02-22T03:25:26.499Z,1.95
2019-02-22T03:27:57.850Z,1.82
2019-02-22T03:30:29.425Z,1.80
2019-02-22T03:33:01.068Z,2.40
2019-02-22T03:35:32.721Z,1.75
2019-02-22T03:38:05.948Z,1.70
2019-02-22T03:40:37.356Z,2.20
2019-02-22T03:43:09.212Z,2.15
2019-02-22T03:45:40.468Z,2.00
2019-02-22T03:48:12.233Z,1.70
2019-02-22T03:50:43.879Z,1.80
2019-02-22T03:53:23.015Z,1.82
2019-02-22T03:55:54.786Z,1.70
2019-02-22T03:58:26.517Z,2.37
2019-02-22T04:00:57.852Z,2.30
2019-02-22T04:03:29.127Z,2.20
2019-02-22T04:06:00.383Z,1.85
2019-02-22T04:08:31.841Z,2.00
2019-02-22T04:11:03.480Z,1.82
2019-02-22T04:13:35.128Z,1.65
2019-02-22T04:16:06.696Z,2.05
2019-02-22T04:18:38.350Z,2.02
2019-02-22T04:21:10.210Z,2.00
2019-02-22T04:23:41.860Z,1.82
2019-02-22T04:26:13.414Z,1.82
2019-02-22T04:28:44.959Z,1.95
2019-02-22T04:31:16.619Z,2.17
2019-02-22T04:33:49.094Z,2.80
2019-02-22T04:36:20.615Z,1.95
2019-02-22T04:38:52.306Z,2.25
2019-02-22T04:41:23.959Z,2.20
2019-02-22T04:43:55.748Z,2.40
2019-02-22T04:46:27.275Z,2.10
2019-02-22T04:48:58.924Z,2.20
2019-02-22T04:51:30.684Z,2.35
2019-02-22T04:54:02.338Z,2.22
2019-02-22T04:56:33.997Z,2.27
2019-02-22T04:59:05.656Z,2.50
2019-02-22T05:01:37.331Z,2.60
2019-02-22T05:04:08.965Z,2.70
2019-02-22T05:06:40.517Z,2.42
2019-02-22T05:09:12.275Z,2.50
2019-02-22T05:11:44.035Z,2.70
2019-02-22T05:14:15.592Z,2.42
2019-02-22T05:16:47.350Z,2.60
2019-02-22T05:19:19.218Z,2.35
2019-02-22T05:21:51.169Z,2.75
2019-02-22T05:24:22.418Z,2.58
2019-02-22T05:26:54.293Z,2.90
2019-02-22T05:29:25.932Z,2.47
2019-02-22T05:31:57.700Z,3.00
2019-02-22T05:34:29.347Z,2.90
2019-02-22T05:37:01.002Z,2.60
2019-02-22T05:39:32.767Z,3.33
2019-02-22T05:42:04.531Z,3.47
2019-02-22T05:44:35.880Z,3.37
2019-02-22T05:47:07.637Z,2.98
2019-02-22T05:49:39.494Z,3.27
2019-02-22T05:52:11.330Z,3.43
2019-02-22T05:54:42.700Z,3.60
2019-02-22T05:57:14.563Z,3.20
2019-02-22T05:59:45.907Z,2.72
2019-02-22T06:02:17.574Z,2.98
2019-02-22T06:04:49.224Z,2.98
2019-02-22T06:07:20.990Z,2.90
2019-02-22T06:09:52.639Z,3.05
2019-02-22T06:12:34.142Z,2.80
2019-02-22T06:17:28.326Z,2.30
2019-02-22T06:19:59.850Z,2.65
2019-02-22T06:22:31.529Z,1.90
2019-02-22T06:25:03.296Z,2.22
2019-02-22T06:27:34.952Z,1.85
2019-02-22T06:30:09.511Z,2.00
2019-02-22T06:32:42.253Z,2.47
2019-02-22T06:35:13.901Z,1.90
2019-02-22T06:37:45.554Z,2.20
2019-02-22T06:40:17.227Z,1.70
2019-02-22T06:42:48.876Z,1.82
2019-02-22T06:45:21.657Z,1.87
2019-02-22T06:47:52.900Z,2.02
2019-02-22T06:50:33.381Z,2.42
2019-02-22T06:52:57.869Z,1.85
2019-02-22T06:55:29.373Z,1.98
2019-02-22T06:58:00.872Z,1.80
2019-02-22T07:00:32.144Z,2.47
2019-02-22T07:03:03.625Z,2.58
2019-02-22T07:05:35.056Z,2.65
2019-02-22T07:08:06.377Z,2.25
2019-02-22T07:10:55.721Z,2.22
2019-02-22T07:13:27.684Z,2.33
2019-02-22T07:15:59.227Z,2.37
2019-02-22T07:18:30.905Z,2.05
2019-02-22T07:21:06.234Z,2.37
2019-02-22T07:23:37.614Z,2.45
2019-02-22T07:26:12.212Z,2.22
2019-02-22T07:28:43.772Z,1.90
2019-02-22T07:31:15.420Z,1.70
2019-02-22T07:33:47.114Z,1.92
2019-02-22T07:36:19.737Z,1.80
2019-02-22T07:38:51.090Z,1.57
2019-02-22T07:41:22.765Z,1.65
2019-02-22T07:43:54.186Z,1.47
2019-02-22T07:46:25.500Z,1.30
2019-02-22T07:48:57.949Z,1.60
2019-02-22T07:51:29.203Z,2.17
2019-02-22T07:54:00.666Z,1.80
2019-02-22T07:56:31.921Z,1.62
2019-02-22T07:59:03.350Z,1.70
2019-02-22T08:01:46.531Z,1.75
2019-02-22T08:04:09.111Z,1.72
2019-02-22T08:06:42.555Z,1.72
2019-02-22T08:09:14.053Z,2.52
2019-02-22T08:11:47.480Z,2.10
2019-02-22T08:16:49.217Z,2.27
2019-02-22T08:19:20.815Z,1.65
2019-02-22T08:21:52.141Z,1.50
2019-02-22T08:24:25.853Z,1.70
2019-02-22T08:29:26.997Z,1.70
2019-02-22T08:31:58.749Z,1.60
2019-02-22T08:34:30.520Z,2.92
2019-02-22T08:37:02.058Z,1.60
2019-02-22T08:39:35.462Z,1.50
2019-02-22T08:42:07.215Z,1.90
2019-02-22T08:44:38.786Z,1.80
2019-02-22T08:47:11.040Z,1.92
2019-02-22T08:49:42.592Z,1.70
2019-02-22T08:52:15.377Z,1.70
2019-02-22T08:54:47.543Z,1.65
2019-02-22T08:57:19.004Z,1.20
2019-02-22T08:59:50.774Z,1.35
2019-02-22T09:02:22.434Z,1.70
2019-02-22T09:04:55.617Z,1.27
2019-02-22T09:07:27.000Z,1.80
2019-02-22T09:09:58.781Z,1.62
2019-02-22T09:12:30.441Z,1.90
2019-02-22T09:15:02.230Z,2.08
2019-02-22T09:17:33.893Z,1.20
2019-02-22T09:20:10.760Z,1.30
2019-02-22T09:22:42.422Z,1.62
2019-02-22T09:25:14.072Z,1.30
2019-02-22T09:27:45.933Z,1.50
2019-02-22T09:30:17.485Z,1.52
2019-02-22T09:32:49.031Z,1.40
2019-02-22T09:35:20.591Z,1.42
2019-02-22T09:37:52.043Z,1.60
2019-02-22T09:40:23.804Z,1.55
2019-02-22T09:42:55.442Z,2.15
2019-02-22T09:45:26.806Z,1.65
2019-02-22T09:47:58.579Z,2.67
2019-02-22T09:50:30.011Z,2.00
2019-02-22T09:53:01.979Z,1.90
2019-02-22T09:55:33.636Z,1.55
2019-02-22T09:58:05.408Z,1.25
2019-02-22T10:00:37.231Z,13.05
2019-02-22T10:03:11.650Z,6.10
2019-02-22T10:05:43.180Z,5.85
2019-02-22T10:08:15.209Z,1.77
2019-02-22T10:10:47.109Z,2.25
2019-02-22T10:13:20.675Z,2.27
2019-02-22T10:15:52.417Z,1.47
2019-02-22T10:18:23.986Z,1.80
2019-02-22T10:20:58.518Z,1.92
2019-02-22T10:23:31.050Z,1.40
2019-02-22T10:26:02.361Z,1.50
2019-02-22T10:28:33.876Z,1.20
2019-02-22T10:31:05.420Z,1.02
2019-02-22T10:33:37.143Z,2.02
2019-02-22T10:36:09.578Z,2.20
2019-02-22T10:38:41.411Z,1.57
2019-02-22T10:41:13.068Z,1.82
2019-02-22T10:43:44.963Z,1.77
2019-02-22T10:46:16.585Z,1.57
2019-02-22T10:48:48.381Z,1.90
2019-02-22T10:51:19.694Z,1.10
2019-02-22T10:53:51.084Z,1.60
2019-02-22T10:56:22.528Z,1.90
2019-02-22T10:58:54.243Z,1.57
2019-02-22T11:01:25.973Z,1.75
2019-02-22T11:03:58.980Z,1.70
2019-02-22T11:06:31.391Z,3.77
2019-02-22T11:09:04.870Z,2.35
2019-02-22T11:11:38.978Z,2.30
2019-02-22T11:14:10.536Z,1.60
2019-02-22T11:16:41.888Z,2.60
2019-02-22T11:19:13.494Z,2.08
2019-02-22T11:21:44.694Z,2.05
2019-02-22T11:24:15.973Z,1.32
2019-02-22T11:26:47.280Z,1.27
2019-02-22T11:29:18.981Z,1.50
2019-02-22T11:31:51.106Z,1.60
2019-02-22T11:34:23.121Z,1.90
2019-02-22T11:36:54.721Z,1.90
2019-02-22T11:39:27.856Z,1.90
2019-02-22T11:41:59.432Z,1.80
2019-02-22T11:44:39.872Z,1.60
2019-02-22T11:49:34.403Z,1.95
2019-02-22T11:52:06.035Z,1.85
2019-02-22T11:54:37.550Z,2.20
2019-02-22T11:57:11.273Z,3.85
2019-02-22T11:59:42.559Z,2.10
2019-02-22T12:02:14.187Z,2.35
2019-02-22T12:04:45.926Z,2.08
2019-02-22T12:07:17.217Z,2.33
2019-02-22T12:09:48.766Z,1.40
2019-02-22T12:12:21.554Z,1.67
2019-02-22T12:14:53.140Z,1.82
2019-02-22T12:17:24.829Z,1.50
2019-02-22T12:19:56.266Z,1.52
2019-02-22T12:22:28.861Z,2.10
2019-02-22T12:25:00.267Z,2.25
2019-02-22T12:27:31.597Z,3.10
2019-02-22T12:30:05.227Z,2.92
2019-02-22T12:32:39.451Z,1.90
2019-02-22T12:35:10.028Z,1.90
2019-02-22T12:37:41.326Z,2.05
2019-02-22T12:40:13.248Z,2.17
2019-02-22T12:42:44.500Z,1.82
2019-02-22T12:45:16.153Z,2.87
2019-02-22T12:47:47.621Z,2.70
2019-02-22T12:50:19.093Z,2.33
2019-02-22T12:52:50.416Z,2.15
2019-02-22T12:55:21.788Z,2.40
2019-02-22T12:57:53.051Z,1.90
2019-02-22T13:03:02.042Z,2.12
2019-02-22T13:05:30.868Z,2.02
2019-02-22T13:08:02.263Z,3.20
2019-02-22T13:10:33.538Z,3.20
2019-02-22T13:13:04.934Z,2.75
2019-02-22T13:15:36.237Z,2.40
2019-02-22T13:18:07.630Z,2.35
2019-02-22T13:20:39.034Z,1.95
2019-02-22T13:23:12.357Z,2.17
2019-02-22T13:25:43.794Z,2.77
2019-02-22T13:28:15.734Z,2.43
2019-02-22T13:30:46.956Z,3.10
2019-02-22T13:33:19.428Z,3.17
2019-02-22T13:35:50.891Z,3.17
2019-02-22T13:38:22.234Z,2.40
2019-02-22T13:40:53.657Z,2.80
2019-02-22T13:43:24.933Z,2.90
2019-02-22T13:45:56.428Z,2.40
2019-02-22T13:48:27.863Z,2.40
2019-02-22T13:51:01.227Z,3.60
2019-02-22T13:53:32.613Z,2.77
2019-02-22T13:56:05.383Z,2.62
2019-02-22T13:58:38.899Z,2.55
2019-02-22T14:03:40.681Z,3.00
2019-02-22T14:06:12.033Z,3.55
2019-02-22T14:08:43.329Z,3.00
2019-02-22T14:11:14.680Z,3.30
2019-02-22T14:13:51.350Z,3.40
2019-02-22T14:16:23.074Z,3.37
2019-02-22T14:18:56.051Z,3.52
2019-02-22T14:21:29.105Z,3.33
2019-02-22T14:24:00.439Z,3.08
2019-02-22T14:26:31.849Z,2.85
2019-02-22T14:29:03.163Z,2.62
2019-02-22T14:31:34.460Z,2.50
2019-02-22T14:34:05.966Z,3.00
2019-02-22T14:36:41.561Z,4.08
2019-02-22T14:39:13.316Z,3.45
2019-02-22T14:41:47.143Z,3.05
2019-02-22T14:44:18.589Z,2.25
2019-02-22T14:46:50.122Z,3.12
2019-02-22T14:49:21.467Z,3.05
2019-02-22T14:51:53.310Z,3.10
2019-02-22T14:54:24.641Z,4.60
2019-02-22T14:56:57.761Z,2.83
2019-02-22T14:59:29.272Z,2.92
2019-02-22T15:02:00.633Z,2.83
2019-02-22T15:04:32.041Z,2.62
2019-02-22T15:07:03.365Z,2.60
2019-02-22T15:09:35.762Z,2.40
2019-02-22T15:12:11.841Z,3.50
2019-02-22T15:14:45.825Z,2.85
2019-02-22T15:19:55.026Z,2.10
2019-02-22T15:22:26.334Z,1.87
2019-02-22T15:24:57.926Z,2.92
2019-02-22T15:27:29.240Z,1.75
2019-02-22T15:30:02.531Z,2.10
2019-02-22T15:32:34.019Z,2.20
2019-02-22T15:35:11.234Z,2.35
2019-02-22T15:37:43.496Z,2.87
2019-02-22T15:40:17.610Z,2.40
2019-02-22T15:42:51.329Z,2.30
2019-02-22T15:45:22.559Z,2.90
2019-02-22T15:50:27.694Z,2.27
2019-02-22T15:53:00.075Z,3.37
2019-02-22T15:55:33.033Z,3.10
2019-02-22T15:58:04.420Z,2.40
2019-02-22T16:00:37.327Z,2.52
2019-02-22T16:05:40.806Z,2.70
2019-02-22T16:08:13.427Z,2.83
2019-02-22T16:10:45.047Z,2.77
2019-02-22T16:13:16.678Z,3.17
2019-02-22T16:15:48.385Z,2.72
2019-02-22T16:18:22.295Z,3.00
2019-02-22T16:20:53.942Z,2.62
2019-02-22T16:23:25.532Z,3.10
2019-02-22T16:25:58.513Z,2.35
2019-02-22T16:28:30.464Z,2.52
2019-02-22T16:31:02.056Z,2.72
2019-02-22T16:33:33.563Z,3.90
2019-02-22T16:36:05.229Z,3.15
2019-02-22T16:38:36.729Z,2.62
2019-02-22T16:41:08.628Z,2.40
2019-02-22T16:43:39.924Z,2.50
2019-02-22T16:46:12.147Z,2.55
2019-02-22T16:48:44.006Z,2.42
2019-02-22T16:51:15.765Z,2.37
2019-02-22T16:53:48.121Z,2.52
2019-02-22T16:56:19.493Z,2.30
2019-02-22T16:58:51.477Z,1.75
2019-02-22T17:01:22.652Z,2.15
2019-02-22T17:03:56.090Z,2.22
2019-02-22T17:06:27.541Z,1.85
2019-02-22T17:11:30.858Z,1.90
2019-02-22T17:14:02.709Z,2.02
2019-02-22T17:16:45.210Z,2.20
2019-02-22T17:19:07.462Z,2.70
2019-02-22T17:21:40.267Z,1.70
2019-02-22T17:24:11.844Z,1.60
2019-02-22T17:26:43.317Z,2.30
2019-02-22T17:29:15.003Z,2.50
2019-02-22T17:31:48.202Z,4.12
2019-02-22T17:34:19.751Z,2.98
2019-02-22T17:36:51.415Z,2.20
2019-02-22T17:39:23.066Z,2.15
2019-02-22T17:41:54.950Z,1.73
2019-02-22T17:44:26.580Z,2.40
2019-02-22T17:46:58.236Z,2.47
2019-02-22T17:49:29.998Z,2.30
2019-02-22T17:52:01.646Z,2.35
2019-02-22T17:54:33.403Z,1.90
2019-02-22T17:57:05.062Z,2.02
2019-02-22T17:59:36.826Z,2.42
2019-02-22T18:02:09.511Z,1.82
2019-02-22T18:04:41.368Z,1.77
2019-02-22T18:07:12.913Z,1.67
2019-02-22T18:09:44.565Z,1.90
2019-02-22T18:12:17.154Z,2.67
2019-02-22T18:14:48.909Z,2.60
2019-02-22T18:17:20.570Z,2.47
2019-02-22T18:19:52.425Z,2.90
2019-02-22T18:22:26.098Z,3.80
2019-02-22T18:24:57.185Z,2.77
2019-02-22T18:27:29.341Z,2.92
2019-02-22T18:30:00.583Z,3.20
2019-02-22T18:32:32.439Z,3.35
2019-02-22T18:35:04.813Z,2.60
2019-02-22T18:37:36.374Z,2.50
2019-02-22T18:40:11.305Z,2.52
2019-02-22T18:42:43.124Z,2.77
2019-02-22T18:45:14.446Z,2.85
2019-02-22T18:47:45.716Z,2.17
2019-02-22T18:50:22.612Z,1.90
2019-02-22T18:52:53.987Z,2.62
2019-02-22T18:55:25.601Z,2.85
2019-02-22T18:57:57.196Z,2.75
2019-02-22T19:00:28.952Z,2.62
2019-02-22T19:03:00.501Z,2.50
2019-02-22T19:05:32.162Z,2.58
2019-02-22T19:08:03.716Z,2.12
2019-02-22T19:10:35.474Z,6.47
2019-02-22T19:13:07.252Z,4.50
2019-02-22T19:15:39.408Z,2.75
2019-02-22T19:18:10.867Z,2.23
2019-02-22T19:20:42.474Z,1.95
2019-02-22T19:23:13.792Z,1.90
2019-02-22T19:25:45.012Z,1.92
2019-02-22T19:28:16.362Z,2.42
2019-02-22T19:30:47.805Z,1.90
2019-02-22T19:33:19.360Z,7.17
2019-02-22T19:35:51.329Z,3.12
2019-02-22T19:38:23.093Z,2.10
2019-02-22T19:40:54.749Z,1.90
2019-02-22T19:43:26.597Z,2.00
2019-02-22T19:45:58.128Z,2.15
2019-02-22T19:48:29.474Z,2.12
2019-02-22T19:51:02.528Z,2.35
2019-02-22T19:53:33.752Z,2.20
2019-02-22T19:56:05.723Z,1.90
2019-02-22T19:58:38.162Z,2.15
2019-02-22T20:01:11.568Z,2.20
2019-02-22T20:03:42.587Z,2.20
2019-02-22T20:06:13.872Z,2.52
2019-02-22T20:08:46.760Z,2.40
2019-02-22T20:13:48.512Z,2.30
2019-02-22T20:16:19.935Z,2.17
2019-02-22T20:18:51.229Z,2.60
2019-02-22T20:21:22.500Z,2.92
2019-02-22T20:23:53.739Z,2.47
2019-02-22T20:26:24.932Z,2.58
2019-02-22T20:28:56.134Z,2.47
2019-02-22T20:31:27.475Z,2.62
2019-02-22T20:33:58.761Z,2.92
2019-02-22T20:36:30.063Z,3.50
2019-02-22T20:39:01.334Z,2.27
2019-02-22T20:44:04.516Z,2.20
2019-02-22T20:46:35.776Z,2.80
2019-02-22T20:49:07.224Z,2.25
2019-02-22T20:51:38.538Z,2.10
2019-02-22T20:54:11.386Z,2.45
2019-02-22T20:56:42.689Z,2.75
2019-02-22T20:59:13.953Z,2.33
2019-02-22T21:01:45.378Z,2.30
2019-02-22T21:04:16.660Z,2.42
2019-02-22T21:06:48.230Z,2.75
2019-02-22T21:09:19.585Z,2.67
2019-02-22T21:11:50.919Z,2.75
2019-02-22T21:14:22.182Z,2.70
2019-02-22T21:16:53.526Z,2.80
2019-02-22T21:19:24.944Z,3.17
2019-02-22T21:21:56.158Z,2.55
2019-02-22T21:24:27.506Z,2.92
2019-02-22T21:26:58.793Z,2.42
2019-02-22T21:29:30.129Z,2.58
2019-02-22T21:32:01.620Z,3.25
2019-02-22T21:34:33.093Z,3.50
2019-02-22T21:37:04.457Z,3.60
2019-02-22T21:39:35.850Z,3.50
2019-02-22T21:42:07.085Z,3.30
2019-02-22T21:44:38.367Z,3.52
2019-02-22T21:47:09.652Z,3.02
2019-02-22T21:49:40.926Z,4.00
2019-02-22T21:52:12.368Z,3.70
2019-02-22T21:54:43.595Z,3.90
2019-02-22T21:57:14.935Z,3.92
2019-02-22T21:59:46.153Z,3.50
2019-02-22T22:02:17.519Z,3.52
2019-02-22T22:04:48.798Z,3.40
2019-02-22T22:07:20.131Z,3.58
2019-02-22T22:09:51.536Z,3.83
2019-02-22T22:12:22.890Z,3.27
2019-02-22T22:14:54.103Z,4.30
2019-02-22T22:17:25.448Z,3.40
2019-02-22T22:19:56.770Z,3.22
2019-02-22T22:22:28.082Z,3.67
2019-02-22T22:24:59.304Z,3.58
2019-02-22T22:27:30.591Z,3.72
2019-02-22T22:30:02.007Z,3.72
2019-02-22T22:32:33.799Z,2.77
2019-02-22T22:35:07.804Z,4.40
2019-02-22T22:37:39.346Z,3.97
2019-02-22T22:40:13.232Z,3.55
2019-02-22T22:42:44.558Z,3.53
2019-02-22T22:45:17.083Z,4.00
2019-02-22T22:47:48.426Z,3.33
2019-02-22T22:50:19.718Z,4.17
2019-02-22T22:52:51.100Z,4.42
2019-02-22T22:55:22.495Z,4.55
2019-02-22T22:57:54.112Z,4.33
2019-02-22T23:00:51.123Z,4.10
2019-02-22T23:03:23.974Z,3.93
2019-02-22T23:05:55.620Z,3.33
2019-02-22T23:08:27.034Z,3.87
2019-02-22T23:10:58.299Z,3.47
2019-02-22T23:13:29.593Z,3.98
2019-02-22T23:16:00.883Z,3.42
2019-02-22T23:18:32.198Z,3.50
2019-02-22T23:21:03.469Z,4.10
2019-02-22T23:23:34.848Z,3.80
2019-02-22T23:26:06.226Z,3.60
2019-02-22T23:28:37.534Z,3.50
2019-02-22T23:31:08.801Z,3.63
2019-02-22T23:33:40.128Z,3.63
2019-02-22T23:36:11.616Z,3.47
2019-02-22T23:38:42.969Z,3.55
2019-02-22T23:41:14.273Z,3.73
2019-02-22T23:43:45.596Z,3.50
2019-02-22T23:46:16.960Z,3.60
2019-02-22T23:48:48.325Z,3.37
2019-02-22T23:51:19.607Z,3.73
2019-02-22T23:53:51.018Z,3.73
2019-02-22T23:56:22.379Z,3.17
2019-02-22T23:58:53.623Z,3.85
